This is the latest recevied weather packets stored in our database for station/object W4CKA. If no packets are shown the sender has not sent any weather packets the latest 10 day(s).
| Time | Temp. | Humidity | Pressure | Rain* | Wind** | Luminosity | Snow |
|---|---|---|---|---|---|---|---|
| 1788140131 | 21.67° C | 96% | 1062.6 hPa | 0 mm | - | 0 W/m² | - |
| 1788139526 | 22.22° C | 95% | 1062.5 hPa | 0 mm | - | 0 W/m² | - |
| 1788138926 | 22.22° C | 95% | 1062.4 hPa | 0 mm | - | 0 W/m² | - |
| 1788138322 | 22.78° C | 94% | 1062.1 hPa | 0 mm | - | 0 W/m² | - |
| 1788137719 | 22.78° C | 94% | 1062.2 hPa | 0 mm | - | 0 W/m² | - |
| 1788137115 | 22.78° C | 93% | 1062.3 hPa | 0 mm | - | 0 W/m² | - |
| 1788136512 | 23.33° C | 91% | 1061.9 hPa | 0 mm | - | 0 W/m² | - |
| 1788135912 | 23.89° C | 91% | 1062 hPa | 0 mm | - | 0 W/m² | - |
| 1788135308 | 23.89° C | 89% | 1061.9 hPa | 0 mm | - | 0 W/m² | - |
| 1788134707 | 24.44° C | 89% | 1061.7 hPa | 0 mm | - | 0 W/m² | - |
| 1788134106 | 25° C | 86% | 1061.8 hPa | 0 mm | - | 1 W/m² | - |
| 1788133501 | 25.56° C | 86% | 1061.7 hPa | 0 mm | - | 7 W/m² | - |
| 1788132898 | 26.67° C | 83% | 1061.8 hPa | 0 mm | - | 13 W/m² | - |
| 1788132296 | 27.22° C | 80% | 1061.7 hPa | 0 mm | - | 22 W/m² | - |
| 1788131693 | 27.78° C | 78% | 1061.4 hPa | 0 mm | - | 26 W/m² | - |
| 1788131093 | 28.33° C | 75% | 1061.3 hPa | 0 mm | - | 29 W/m² | - |
| 1788130488 | 29.44° C | 69% | 1061.6 hPa | 0 mm | - | 64 W/m² | - |
| 1788129886 | 29.44° C | 70% | 1061.6 hPa | 0 mm | - | 89 W/m² | - |
| 1788129286 | 30.56° C | 68% | 1061.5 hPa | 0 mm | - | 109 W/m² | - |
| 1788128686 | 30.56° C | 66% | 1061.6 hPa | 0 mm | - | 117 W/m² | - |
| 1788128084 | 32.22° C | 61% | 1061.6 hPa | 0 mm | - | 146 W/m² | - |
| 1788127479 | 31.67° C | 60% | 1061.5 hPa | 0 mm | - | 179 W/m² | - |
| 1788126878 | 31.67° C | 64% | 1061.5 hPa | 0 mm | - | 186 W/m² | - |
| 1788126273 | 31.67° C | 64% | 1061.3 hPa | 0 mm | - | 201 W/m² | - |
| 1788125669 | 31.67° C | 65% | 1061.5 hPa | 0 mm | - | 259 W/m² | - |
* Rain latest hour (hover to see other rain measurements)
** Current wind speed in m/s (hover to see current wind gust speed)